Time;durP1;ratioP1;P1;durP2;ratioP2;P2;SDS_P1;SDS_P2;PMS_P1;PMS_P2;Temp;Humidity;BMP_temperature;BMP_pressure;BME280_temperature;BME280_humidity;BME280_pressure;Samples;Min_cycle;Max_cycle;Signal;HPM_P1;HPM_P2
2021/01/17 00:01:24;;;;;;;34.13;17.30;;;;;;;-9.18;85.81;99811.94;1837814;76;21131;-65
2021/01/17 00:03:51;;;;;;;27.70;14.00;;;;;;;-9.16;85.92;99815.35;1840387;77;21618;-64
2021/01/17 00:06:18;;;;;;;25.30;13.72;;;;;;;-9.12;85.86;99814.66;1839450;77;20970;-64
2021/01/17 00:08:45;;;;;;;30.32;15.43;;;;;;;-9.16;85.73;99824.20;1844095;77;21009;-64
2021/01/17 00:11:18;;;;;;;34.40;15.95;;;;;;;-9.25;85.75;99826.88;1840716;77;28813;-65
2021/01/17 00:13:47;;;;;;;32.23;15.72;;;;;;;-9.24;85.85;99838.73;1841354;77;21615;-64
2021/01/17 00:16:16;;;;;;;29.90;15.23;;;;;;;-9.20;85.93;99846.42;1831855;77;21830;-64
2021/01/17 00:18:46;;;;;;;30.10;13.08;;;;;;;-9.20;85.88;99848.95;1842149;77;21555;-64
2021/01/17 00:21:15;;;;;;;30.70;14.90;;;;;;;-9.22;85.75;99851.83;1839216;77;21172;-64
2021/01/17 00:23:42;;;;;;;29.77;15.08;;;;;;;-9.27;85.72;99856.72;1835646;77;21005;-64
2021/01/17 00:26:09;;;;;;;;;;;;;;;-9.30;85.71;99860.03;1832760;77;21649;-64
2021/01/17 00:28:37;;;;;;;31.23;12.88;;;;;;;-9.31;85.73;99869.66;1829819;77;24389;-64
2021/01/17 00:31:05;;;;;;;24.77;12.68;;;;;;;-9.36;85.65;99870.31;1826701;77;20997;-64
2021/01/17 00:33:32;;;;;;;32.00;13.98;;;;;;;-9.44;85.58;99871.71;1830214;77;21105;-64
2021/01/17 00:35:59;;;;;;;39.80;18.50;;;;;;;-9.51;85.59;99870.65;1785419;77;21722;-65
2021/01/17 00:38:28;;;;;;;32.17;16.00;;;;;;;-9.57;85.57;99868.77;1828116;77;21072;-64
2021/01/17 00:40:56;;;;;;;30.35;14.30;;;;;;;-9.61;85.65;99871.11;1834993;77;21194;-64
2021/01/17 00:43:25;;;;;;;39.78;19.05;;;;;;;-9.63;85.69;99878.66;1829399;77;20954;-64
2021/01/17 00:45:53;;;;;;;35.80;18.80;;;;;;;-9.65;85.71;99871.42;1824801;77;21064;-64
2021/01/17 00:48:20;;;;;;;38.75;18.32;;;;;;;-9.70;85.61;99877.56;1783432;79;21041;-64
2021/01/17 00:51:10;;;;;;;36.77;17.40;;;;;;;-9.76;85.59;99876.08;1765683;79;21697;-64
2021/01/17 00:53:37;;;;;;;36.35;17.30;;;;;;;-9.80;85.60;99878.05;1751709;81;21247;-64
2021/01/17 00:56:05;;;;;;;37.70;18.05;;;;;;;-9.85;85.62;99869.44;1742571;81;21065;-64
2021/01/17 00:58:32;;;;;;;31.37;15.78;;;;;;;-9.86;85.64;99874.42;1739676;81;21603;-64
2021/01/17 01:00:59;;;;;;;40.28;16.05;;;;;;;-9.91;85.61;99871.74;1744524;81;21056;-64
2021/01/17 01:03:27;;;;;;;30.70;14.75;;;;;;;-9.96;85.59;99871.97;1746536;81;21760;-64
2021/01/17 01:05:54;;;;;;;29.00;14.47;;;;;;;-10.01;85.63;99876.84;1743262;81;21209;-64
2021/01/17 01:08:20;;;;;;;33.70;16.40;;;;;;;-10.03;85.66;99883.90;1742652;81;21088;-64
2021/01/17 01:10:48;;;;;;;26.70;14.25;;;;;;;-10.04;85.72;99880.52;1742540;81;21040;-64
2021/01/17 01:13:15;;;;;;;;;;;;;;;-10.04;85.80;99882.19;1750238;81;21057;-65
2021/01/17 01:15:42;;;;;;;28.05;14.47;;;;;;;-10.01;85.78;99887.35;1741752;81;20217;-64
2021/01/17 01:18:09;;;;;;;32.60;16.35;;;;;;;-10.03;85.57;99886.02;1748846;81;21655;-65
2021/01/17 01:20:36;;;;;;;34.98;15.43;;;;;;;-10.07;85.37;99882.08;1737687;81;21682;-63
2021/01/17 01:23:03;;;;;;;30.62;15.40;;;;;;;-10.12;85.23;99888.61;1746540;81;21241;-63
2021/01/17 01:25:30;;;;;;;34.55;17.23;;;;;;;-10.19;85.19;99888.39;1747505;81;21242;-63
2021/01/17 01:27:57;;;;;;;;;;;;;;;-10.23;85.21;99895.36;1707297;81;21111;-63
2021/01/17 01:30:24;;;;;;;28.98;14.07;;;;;;;-10.24;85.36;99902.49;1740505;81;22728;-63
2021/01/17 01:32:52;;;;;;;28.07;14.20;;;;;;;-10.25;85.25;99898.25;1743647;81;21012;-64
2021/01/17 01:35:19;;;;;;;32.70;15.05;;;;;;;-10.31;85.06;99892.98;1740102;81;21068;-63
2021/01/17 01:37:47;;;;;;;30.90;14.47;;;;;;;-10.39;84.94;99896.86;1744630;81;20990;-63
2021/01/17 01:40:16;;;;;;;25.40;12.63;;;;;;;-10.48;84.74;99893.98;1743242;81;21555;-63
2021/01/17 01:42:43;;;;;;;;;;;;;;;-10.60;84.77;99885.13;1748609;81;21199;-63
2021/01/17 01:45:12;;;;;;;25.48;11.22;;;;;;;-10.68;84.78;99886.89;1741454;81;20464;-63
2021/01/17 01:47:39;;;;;;;31.00;13.90;;;;;;;-10.76;84.90;99887.83;1739573;81;21629;-63
2021/01/17 01:50:09;;;;;;;29.18;14.23;;;;;;;-10.81;85.04;99885.52;1746903;81;21001;-63
2021/01/17 01:52:36;;;;;;;33.33;15.45;;;;;;;-10.83;85.12;99892.19;1745659;81;21104;-63
2021/01/17 01:55:05;;;;;;;33.33;15.68;;;;;;;-10.84;85.22;99887.55;1746932;82;21626;-63
2021/01/17 01:57:33;;;;;;;39.60;16.82;;;;;;;-10.80;85.42;99891.05;1747209;82;21162;-63
2021/01/17 02:00:04;;;;;;;46.95;17.73;;;;;;;-10.75;85.52;99879.48;1712322;82;21160;-63
2021/01/17 02:02:44;;;;;;;34.15;17.00;;;;;;;-10.68;85.48;99875.53;1728839;82;21021;-63
2021/01/17 02:05:12;;;;;;;31.68;15.65;;;;;;;-10.65;85.40;99879.03;1746275;81;21198;-64
2021/01/17 02:08:29;;;;;;;33.50;15.75;;;;;;;-10.62;85.34;99881.67;1746445;81;21202;-63
2021/01/17 02:11:25;;;;;;;28.90;14.00;;;;;;;-10.61;85.18;99884.68;1744191;81;21228;-63
2021/01/17 02:14:03;;;;;;;38.23;14.93;;;;;;;-10.62;85.15;99882.94;1747880;81;21634;-63
2021/01/17 02:16:30;;;;;;;26.52;12.98;;;;;;;-10.60;85.21;99888.91;1736387;82;21172;-63
2021/01/17 02:18:59;;;;;;;30.43;14.13;;;;;;;-10.56;85.27;99892.82;1739407;82;21667;-63
2021/01/17 02:21:30;;;;;;;28.77;14.35;;;;;;;-10.53;85.26;99895.46;1733912;80;22522;-63
2021/01/17 02:24:02;;;;;;;28.05;13.10;;;;;;;-10.50;85.25;99896.84;1733243;80;21057;-63
2021/01/17 02:26:29;;;;;;;29.10;14.38;;;;;;;-10.48;85.26;99902.82;1733961;82;21195;-63
2021/01/17 02:28:58;;;;;;;24.70;14.38;;;;;;;-10.44;85.31;99906.80;1738133;82;21163;-63
2021/01/17 02:31:26;;;;;;;29.63;14.45;;;;;;;-10.38;85.40;99903.66;1737463;82;21116;-63
2021/01/17 02:33:55;;;;;;;26.35;14.43;;;;;;;-10.34;85.21;99911.80;1732597;82;22259;-63
2021/01/17 02:36:54;;;;;;;30.55;14.90;;;;;;;-10.35;85.12;99905.03;1716527;82;21160;-63
2021/01/17 02:39:45;;;;;;;30.55;13.60;;;;;;;-10.38;85.05;99905.77;1741632;82;21594;-63
2021/01/17 02:42:15;;;;;;;29.82;15.13;;;;;;;-10.41;85.05;99899.75;1742100;82;22132;-64
2021/01/17 02:44:42;;;;;;;29.77;15.05;;;;;;;-10.41;85.16;99901.02;1736139;80;21168;-63
2021/01/17 02:47:10;;;;;;;36.90;15.50;;;;;;;-10.39;85.11;99901.91;1736231;82;21194;-63
2021/01/17 02:49:37;;;;;;;32.50;15.55;;;;;;;-10.40;85.21;99897.67;1736989;81;21238;-63
2021/01/17 02:52:07;;;;;;;36.28;16.10;;;;;;;-10.38;85.21;99908.70;1736634;82;21730;-63
2021/01/17 02:54:38;;;;;;;34.00;14.25;;;;;;;-10.37;85.18;99910.41;1734696;82;21112;-63
2021/01/17 02:57:11;;;;;;;36.90;16.52;;;;;;;-10.36;85.20;99907.11;1737296;82;21163;-63
2021/01/17 03:00:10;;;;;;;34.05;17.32;;;;;;;-10.33;85.33;99908.48;1735730;82;22173;-63
2021/01/17 03:02:46;;;;;;;31.00;14.85;;;;;;;-10.29;85.36;99896.43;1731612;82;21101;-63
2021/01/17 03:05:21;;;;;;;35.13;14.53;;;;;;;-10.24;85.48;99902.49;1732262;82;21148;-63
2021/01/17 03:07:51;;;;;;;30.85;15.30;;;;;;;-10.18;85.44;99901.87;1731282;82;21196;-64
2021/01/17 03:10:19;;;;;;;31.75;15.13;;;;;;;-10.18;85.30;99895.14;1727017;82;21674;-63
2021/01/17 03:12:47;;;;;;;32.20;14.73;;;;;;;-10.19;85.28;99895.96;1737589;82;21235;-63
2021/01/17 03:15:18;;;;;;;31.00;14.23;;;;;;;-10.16;85.24;99891.02;1735155;82;21187;-64
2021/01/17 03:17:45;;;;;;;27.20;13.45;;;;;;;-10.18;85.19;99892.62;1730099;81;21144;-63
2021/01/17 03:20:12;;;;;;;27.22;15.53;;;;;;;-10.19;85.13;99896.37;1735405;82;21092;-64
2021/01/17 03:22:39;;;;;;;32.20;15.10;;;;;;;-10.22;85.13;99885.75;1729656;82;21692;-63
2021/01/17 03:25:08;;;;;;;37.03;15.70;;;;;;;-10.26;85.04;99883.03;1735426;82;22095;-63
2021/01/17 03:27:36;;;;;;;27.73;14.60;;;;;;;-10.31;84.99;99882.88;1734143;82;21174;-63
2021/01/17 03:30:04;;;;;;;31.50;14.98;;;;;;;-10.34;85.04;99890.34;1732696;82;21143;-63
2021/01/17 03:32:31;;;;;;;33.88;14.85;;;;;;;-10.33;85.21;99894.60;1734700;82;21203;-63
2021/01/17 03:34:58;;;;;;;24.92;13.05;;;;;;;-10.30;85.12;99903.55;1729624;82;20993;-63
2021/01/17 03:37:25;;;;;;;29.18;13.72;;;;;;;-10.36;85.12;99899.53;1733059;82;22184;-63
2021/01/17 03:39:52;;;;;;;;;;;;;;;-10.31;85.40;99899.28;1736214;82;21191;-63
2021/01/17 03:42:19;;;;;;;25.35;11.45;;;;;;;-10.26;85.43;99895.66;1736500;82;20199;-63
2021/01/17 03:44:48;;;;;;;23.38;12.18;;;;;;;-10.24;85.51;99884.81;1734655;82;21135;-63
2021/01/17 03:47:15;;;;;;;24.52;12.55;;;;;;;-10.31;85.16;99885.41;1732182;82;21147;-63
2021/01/17 03:49:42;;;;;;;;;;;;;;;-10.39;85.24;99891.81;1735492;82;21150;-63
2021/01/17 03:52:09;;;;;;;23.02;13.03;;;;;;;-10.44;85.16;99903.42;1736964;81;20401;-63
2021/01/17 03:54:36;;;;;;;28.20;13.38;;;;;;;-10.47;85.24;99898.25;1743356;81;20993;-63
2021/01/17 03:57:04;;;;;;;23.00;13.58;;;;;;;-10.49;85.28;99890.61;1747369;81;21203;-63
2021/01/17 03:59:31;;;;;;;23.27;12.37;;;;;;;-10.52;85.24;99892.16;1744256;81;21156;-63
2021/01/17 04:01:57;;;;;;;26.00;11.33;;;;;;;-10.54;85.29;99906.37;1749558;81;21640;-63
2021/01/17 04:04:25;;;;;;;26.27;12.10;;;;;;;-10.57;85.22;99906.25;1746132;81;21627;-63
2021/01/17 04:06:51;;;;;;;25.52;13.25;;;;;;;-10.62;85.23;99909.44;1746811;81;21007;-63
2021/01/17 04:09:19;;;;;;;24.60;13.25;;;;;;;-10.63;85.26;99900.15;1752458;81;21144;-63
2021/01/17 04:11:50;;;;;;;22.10;12.03;;;;;;;-10.65;85.27;99906.79;1741781;81;21223;-63
2021/01/17 04:14:17;;;;;;;26.45;11.80;;;;;;;-10.69;85.24;99901.17;1744574;81;21208;-63
2021/01/17 04:16:51;;;;;;;23.40;10.68;;;;;;;-10.70;85.21;99905.73;1743349;81;21515;-63
2021/01/17 04:19:20;;;;;;;20.80;10.93;;;;;;;-10.72;85.28;99899.79;1739257;81;21065;-64
2021/01/17 04:21:47;;;;;;;20.45;11.18;;;;;;;-10.73;85.33;99898.05;1748019;81;21155;-63
2021/01/17 04:24:14;;;;;;;;;;;;;;;-10.69;85.47;99904.95;1755931;81;21532;-63
2021/01/17 04:26:41;;;;;;;;;;;;;;;-10.70;85.37;99901.95;1749100;81;21819;-63
2021/01/17 04:29:08;;;;;;;26.75;12.28;;;;;;;-10.70;85.32;99913.30;1745446;81;20322;-63
2021/01/17 04:31:41;;;;;;;32.90;12.63;;;;;;;-10.71;85.39;99916.64;1744433;81;21127;-63
2021/01/17 04:34:09;;;;;;;24.07;11.75;;;;;;;-10.64;85.61;99916.10;1749630;81;21370;-63
2021/01/17 04:36:36;;;;;;;25.72;11.95;;;;;;;-10.57;85.68;99918.87;1743258;81;21132;-64
2021/01/17 04:39:06;;;;;;;23.27;12.58;;;;;;;-10.48;85.66;99915.44;1745299;81;21221;-63
2021/01/17 04:41:37;;;;;;;19.60;10.55;;;;;;;-10.45;85.50;99904.20;1745836;81;21104;-63
2021/01/17 04:44:05;;;;;;;20.52;11.15;;;;;;;-10.47;85.39;99906.68;1748752;81;21082;-63
2021/01/17 04:46:32;;;;;;;21.02;11.20;;;;;;;-10.51;85.33;99903.97;1742633;81;21036;-63
2021/01/17 04:49:09;;;;;;;20.02;11.05;;;;;;;-10.55;85.30;99912.23;1744852;81;21172;-63
2021/01/17 04:51:36;;;;;;;25.02;10.98;;;;;;;-10.62;85.32;99917.00;1744346;81;21224;-63
2021/01/17 04:54:05;;;;;;;22.98;12.03;;;;;;;-10.66;85.38;99925.27;1750259;81;21642;-63
2021/01/17 04:56:40;;;;;;;22.17;11.20;;;;;;;-10.69;85.37;99933.12;1747641;81;21041;-64
2021/01/17 04:59:17;;;;;;;23.30;11.60;;;;;;;-10.74;85.35;99939.22;1744476;81;22231;-63
2021/01/17 05:01:50;;;;;;;;;;;;;;;-10.77;85.36;99939.10;1749925;81;21205;-63
2021/01/17 05:04:46;;;;;;;19.45;10.15;;;;;;;-10.78;85.39;99943.70;1752442;81;21203;-64
2021/01/17 05:07:23;;;;;;;24.63;12.50;;;;;;;-10.81;85.46;99939.75;1753360;81;21246;-64
2021/01/17 05:10:12;;;;;;;22.90;12.40;;;;;;;-10.79;85.57;99934.38;1747235;81;21618;-64
2021/01/17 05:12:50;;;;;;;21.20;11.73;;;;;;;-10.78;85.57;99927.67;1746384;81;21171;-63
2021/01/17 05:15:23;;;;;;;20.55;10.93;;;;;;;-10.78;85.51;99933.98;1745098;81;21242;-63
2021/01/17 05:17:54;;;;;;;21.77;11.38;;;;;;;-10.83;85.50;99946.02;1743912;81;22241;-63
2021/01/17 05:20:22;;;;;;;19.57;10.63;;;;;;;-10.83;85.53;99942.64;1750011;81;21037;-64
2021/01/17 05:22:51;;;;;;;26.42;12.80;;;;;;;-10.83;85.54;99953.98;1747217;81;21075;-63
2021/01/17 05:25:20;;;;;;;26.45;13.25;;;;;;;-10.81;85.56;99962.45;1745712;81;21566;-63
2021/01/17 05:27:49;;;;;;;26.05;12.58;;;;;;;-10.82;85.51;99960.75;1746587;81;21114;-63
2021/01/17 05:30:19;;;;;;;19.32;11.57;;;;;;;-10.83;85.39;99953.98;1748232;81;21424;-63
2021/01/17 05:32:55;;;;;;;19.90;11.18;;;;;;;-10.86;85.39;99960.17;1752715;81;21574;-63
2021/01/17 05:35:24;;;;;;;20.32;10.63;;;;;;;-10.87;85.48;99965.99;1745666;81;21547;-63
2021/01/17 05:37:54;;;;;;;21.05;11.97;;;;;;;-10.88;85.52;99966.80;1752190;81;21116;-63
2021/01/17 05:40:23;;;;;;;20.37;10.35;;;;;;;-10.86;85.61;99974.05;1748121;81;21637;-64
2021/01/17 05:42:50;;;;;;;23.12;10.78;;;;;;;-10.86;85.43;99986.66;1745151;81;21189;-63
2021/01/17 05:45:19;;;;;;;;;;;;;;;-10.89;85.48;99976.44;1753355;81;21177;-64
2021/01/17 05:47:58;;;;;;;21.65;10.70;;;;;;;-10.89;85.50;99986.53;1747444;81;20217;-63
2021/01/17 05:50:31;;;;;;;18.35;10.82;;;;;;;-10.91;85.50;99995.68;1747321;81;21174;-63
2021/01/17 05:53:02;;;;;;;26.02;11.55;;;;;;;-10.86;85.65;99991.70;1755182;81;21135;-64
2021/01/17 05:55:40;;;;;;;21.15;10.50;;;;;;;-10.79;85.67;99994.07;1752298;81;21406;-64
2021/01/17 05:58:31;;;;;;;28.65;15.05;;;;;;;-10.76;85.58;99992.94;1755321;81;21709;-63
2021/01/17 06:01:06;;;;;;;26.97;13.53;;;;;;;-10.79;85.50;99998.71;1740848;81;21029;-64
2021/01/17 06:03:36;;;;;;;30.23;16.67;;;;;;;-10.78;85.55;99999.20;1735682;81;21183;-64
2021/01/17 06:06:06;;;;;;;25.35;13.38;;;;;;;-10.78;85.50;99997.05;1753689;81;21167;-64
2021/01/17 06:08:37;;;;;;;25.65;12.60;;;;;;;-10.76;85.56;100003.88;1749947;81;22286;-64
2021/01/17 06:11:12;;;;;;;23.80;14.25;;;;;;;-10.74;85.61;100001.03;1752084;81;21875;-64
2021/01/17 06:14:00;;;;;;;41.53;18.15;;;;;;;-10.66;85.62;100006.01;1872337;75;22744;-64
2021/01/17 06:16:42;;;;;;;28.57;15.48;;;;;;;-10.73;85.42;100007.80;1856789;75;20973;-65
2021/01/17 06:19:12;;;;;;;32.95;14.10;;;;;;;-10.75;85.47;100010.67;1848973;75;22149;-65
2021/01/17 06:21:47;;;;;;;22.27;12.20;;;;;;;-10.72;85.57;100013.33;1854493;75;21060;-65
2021/01/17 06:24:16;;;;;;;25.08;11.50;;;;;;;-10.66;85.57;100021.55;1851374;75;21609;-66
2021/01/17 06:26:44;;;;;;;25.48;12.20;;;;;;;-10.65;85.55;100018.22;1846008;75;21062;-66
2021/01/17 06:29:13;;;;;;;23.42;11.75;;;;;;;-10.65;85.52;100025.38;1841684;75;21007;-66
2021/01/17 06:31:40;;;;;;;22.17;10.95;;;;;;;-10.69;85.37;100027.33;1852302;75;22751;-66
2021/01/17 06:34:16;;;;;;;22.80;12.00;;;;;;;-10.70;85.47;100026.84;1759380;78;21625;-64
2021/01/17 06:36:48;;;;;;;25.12;12.75;;;;;;;-10.68;85.55;100032.83;1763735;80;21575;-64
2021/01/17 06:39:28;;;;;;;20.77;11.43;;;;;;;-10.61;85.63;100037.75;1763938;80;21189;-64
2021/01/17 06:41:59;;;;;;;23.20;10.78;;;;;;;-10.58;85.57;100036.62;1762602;80;21175;-64
2021/01/17 06:44:35;;;;;;;21.82;11.85;;;;;;;-10.55;85.54;100040.94;1762829;80;21103;-63
2021/01/17 06:47:28;;;;;;;22.85;12.55;;;;;;;-10.52;85.59;100046.11;1767452;79;21100;-64
2021/01/17 06:49:56;;;;;;;25.72;12.47;;;;;;;-10.50;85.56;100049.53;1701082;82;21636;-64
2021/01/17 06:52:23;;;;;;;22.62;11.90;;;;;;;-10.47;85.59;100049.69;1730742;81;21060;-64
2021/01/17 06:54:53;;;;;;;23.75;12.65;;;;;;;-10.44;85.59;100046.03;1735155;80;21562;-63
2021/01/17 06:57:21;;;;;;;28.47;12.37;;;;;;;-10.41;85.58;100052.47;1732590;80;21203;-64
2021/01/17 06:59:51;;;;;;;24.25;12.28;;;;;;;-10.39;85.59;100063.47;1732721;81;21599;-63
2021/01/17 07:02:31;;;;;;;21.60;11.40;;;;;;;-10.39;85.61;100053.38;1736612;80;21033;-64
2021/01/17 07:05:37;;;;;;;22.70;12.95;;;;;;;-10.38;85.58;100060.16;1702662;81;21206;-64
2021/01/17 07:08:51;;;;;;;30.20;13.38;;;;;;;-10.37;85.57;100064.41;1694028;83;21578;-63
2021/01/17 07:11:53;;;;;;;26.33;12.70;;;;;;;-10.33;85.58;100053.66;1832330;77;29322;-63
2021/01/17 07:14:30;;;;;;;24.55;11.97;;;;;;;-10.30;85.64;100061.35;1874734;74;22453;-65
2021/01/17 07:16:59;;;;;;;20.23;10.75;;;;;;;-10.34;85.63;100063.27;1841687;75;21039;-64
2021/01/17 07:19:33;;;;;;;20.68;12.00;;;;;;;-10.32;85.61;100065.47;1844702;75;21198;-63
2021/01/17 07:22:05;;;;;;;21.45;12.10;;;;;;;-10.31;85.62;100067.17;1844970;75;21215;-63
2021/01/17 07:24:33;;;;;;;21.35;12.05;;;;;;;-10.25;85.71;100070.32;1844070;75;21650;-64
2021/01/17 07:27:30;;;;;;;25.92;13.30;;;;;;;-10.21;85.69;100070.52;1840863;75;21742;-64
2021/01/17 07:29:59;;;;;;;21.27;12.43;;;;;;;-10.18;85.73;100070.65;1707657;82;20984;-64
2021/01/17 07:32:37;;;;;;;24.80;13.62;;;;;;;-10.15;85.61;100077.08;1707840;82;21398;-64
2021/01/17 07:35:12;;;;;;;26.52;15.20;;;;;;;-10.12;85.63;100076.75;1704445;82;21051;-64
2021/01/17 07:37:42;;;;;;;24.12;12.07;;;;;;;-10.09;85.64;100075.61;1706346;82;21157;-64
2021/01/17 07:40:11;;;;;;;24.95;12.90;;;;;;;-10.03;85.62;100080.91;1701651;82;21261;-64
2021/01/17 07:42:39;;;;;;;23.85;12.63;;;;;;;-10.00;85.63;100079.77;1703161;82;21226;-64
2021/01/17 07:45:20;;;;;;;32.33;15.15;;;;;;;-9.99;85.50;100081.52;1703732;82;21363;-63
2021/01/17 07:47:47;;;;;;;25.30;12.73;;;;;;;-9.90;85.68;100078.09;1696687;82;21229;-63
2021/01/17 07:50:15;;;;;;;27.67;13.25;;;;;;;-9.78;85.76;100088.67;1704813;82;21106;-63
2021/01/17 07:52:50;;;;;;;28.55;15.98;;;;;;;-9.71;85.63;100080.95;1708274;82;21187;-63
2021/01/17 07:55:21;;;;;;;27.30;15.43;;;;;;;-9.64;85.57;100080.78;1704010;82;21588;-64
2021/01/17 07:57:51;;;;;;;22.17;13.60;;;;;;;-9.58;85.56;100077.22;1703345;82;21617;-64
2021/01/17 08:00:26;;;;;;;28.07;15.00;;;;;;;-9.53;85.39;100087.13;1700237;82;21109;-64
2021/01/17 08:02:53;;;;;;;30.30;14.63;;;;;;;-9.52;85.25;100097.68;1702860;82;21202;-64
2021/01/17 08:05:40;;;;;;;32.33;15.20;;;;;;;-9.52;85.24;100096.42;1704594;82;21617;-63
2021/01/17 08:08:11;;;;;;;;;;;;;;;-9.49;85.33;100104.15;1701493;82;21202;-64
2021/01/17 08:10:40;;;;;;;25.23;13.93;;;;;;;-9.42;85.38;100095.13;1696229;82;21213;-65
2021/01/17 08:13:20;;;;;;;32.08;16.15;;;;;;;-9.37;85.37;100101.23;1706670;82;21616;-64
2021/01/17 08:15:47;;;;;;;30.17;16.12;;;;;;;-9.27;85.57;100104.17;1709342;82;21293;-64
2021/01/17 08:18:19;;;;;;;;;;;;;;;-9.14;85.53;100107.16;1708469;82;21186;-64
2021/01/17 08:20:59;;;;;;;24.72;13.62;;;;;;;-8.98;85.46;100099.34;1840179;76;22338;-64
2021/01/17 08:23:26;;;;;;;29.15;16.75;;;;;;;-8.94;85.34;100108.75;1742456;80;21646;-64
2021/01/17 08:25:55;;;;;;;27.30;15.28;;;;;;;-8.88;85.19;100105.59;1776067;79;21191;-64
2021/01/17 08:28:36;;;;;;;21.12;13.05;;;;;;;-8.86;85.06;100106.10;1769652;79;21014;-63
2021/01/17 08:31:33;;;;;;;23.25;12.73;;;;;;;-8.81;85.11;100113.47;1746177;81;21086;-64
2021/01/17 08:34:09;;;;;;;26.12;14.87;;;;;;;-8.66;85.29;100111.03;1746149;81;21036;-64
2021/01/17 08:36:36;;;;;;;27.93;14.68;;;;;;;-8.45;85.23;100113.06;1746219;81;21080;-64
2021/01/17 08:39:08;;;;;;;32.28;15.43;;;;;;;-8.45;84.97;100121.93;1749655;81;21200;-64
2021/01/17 08:41:38;;;;;;;25.32;14.28;;;;;;;-8.42;84.99;100120.77;1756164;80;21008;-63
2021/01/17 08:44:13;;;;;;;27.02;15.03;;;;;;;-8.34;85.13;100119.33;1751589;80;21111;-63
2021/01/17 08:46:43;;;;;;;24.43;15.40;;;;;;;-8.25;85.14;100125.53;1753476;79;21198;-64
2021/01/17 08:49:11;;;;;;;25.45;14.90;;;;;;;-8.25;84.58;100126.80;1745305;80;21213;-64
2021/01/17 08:51:42;;;;;;;28.42;15.00;;;;;;;-8.34;84.43;100130.73;1734668;80;21316;-64
2021/01/17 08:54:27;;;;;;;28.57;15.68;;;;;;;-8.41;84.42;100129.22;1741207;80;21225;-64
2021/01/17 08:56:54;;;;;;;37.15;17.25;;;;;;;-8.44;84.43;100119.84;1743982;80;21701;-64
2021/01/17 08:59:35;;;;;;;40.83;17.02;;;;;;;-8.45;84.39;100123.20;1757906;80;21097;-64
2021/01/17 09:02:02;;;;;;;30.05;16.75;;;;;;;-8.47;84.29;100129.87;1762753;79;21076;-64
2021/01/17 09:04:35;;;;;;;30.23;16.17;;;;;;;-8.56;84.10;100119.42;1760814;79;21659;-64
2021/01/17 09:07:09;;;;;;;23.73;13.85;;;;;;;-8.60;84.13;100134.03;1757291;80;21212;-64
2021/01/17 09:09:36;;;;;;;28.17;14.03;;;;;;;-8.61;84.19;100136.11;1755716;80;21719;-64
2021/01/17 09:12:11;;;;;;;23.27;13.78;;;;;;;-8.61;84.21;100141.17;1760121;80;21002;-65
2021/01/17 09:14:38;;;;;;;29.87;16.32;;;;;;;-8.59;84.26;100154.77;1760114;80;20991;-65
2021/01/17 09:17:10;;;;;;;32.30;18.42;;;;;;;-8.58;84.25;100159.00;1762189;80;21034;-64
2021/01/17 09:19:38;;;;;;;30.27;18.37;;;;;;;-8.51;84.28;100155.91;1757082;80;21024;-64
2021/01/17 09:22:08;;;;;;;38.10;18.70;;;;;;;-8.43;84.14;100165.91;1733722;81;21666;-64
2021/01/17 09:24:42;;;;;;;49.88;24.65;;;;;;;-8.36;83.97;100160.20;1739353;81;21084;-65
2021/01/17 09:27:11;;;;;;;39.50;22.10;;;;;;;-8.23;84.22;100166.95;1741570;81;21080;-65
2021/01/17 09:29:41;;;;;;;38.33;22.05;;;;;;;-8.04;84.29;100161.72;1737256;81;21247;-66
2021/01/17 09:32:16;;;;;;;51.40;24.75;;;;;;;-7.91;84.32;100163.88;1735577;81;21622;-65
2021/01/17 09:34:49;;;;;;;46.92;23.60;;;;;;;-7.95;84.01;100164.59;1739514;82;21152;-64
2021/01/17 09:37:21;;;;;;;41.73;23.32;;;;;;;-7.92;84.28;100162.16;1736193;80;21583;-65
2021/01/17 09:39:53;;;;;;;52.55;25.27;;;;;;;-7.86;84.20;100164.04;1718352;82;21148;-64
2021/01/17 09:42:23;;;;;;;36.17;19.45;;;;;;;-7.75;83.99;100168.20;1730989;82;22212;-64
2021/01/17 09:44:58;;;;;;;51.85;28.47;;;;;;;-7.73;83.84;100167.83;1727691;82;21036;-64
2021/01/17 09:47:29;;;;;;;105.17;52.65;;;;;;;-7.71;83.70;100174.67;1734646;81;21019;-66
2021/01/17 09:50:10;;;;;;;85.28;43.48;;;;;;;-7.69;83.88;100172.20;1729470;82;21612;-66
2021/01/17 09:52:41;;;;;;;88.90;45.33;;;;;;;-7.64;83.66;100178.30;1734308;82;21100;-67
2021/01/17 09:55:11;;;;;;;98.85;48.33;;;;;;;-7.60;83.39;100177.58;1735510;81;21197;-65
2021/01/17 09:57:41;;;;;;;109.37;50.50;;;;;;;-7.61;83.37;100178.39;1739103;82;21184;-66
2021/01/17 10:00:20;;;;;;;113.97;57.58;;;;;;;-7.54;83.52;100175.23;1733999;82;21119;-66
2021/01/17 10:02:45;;;;;;;;;;;;;;;-7.45;83.52;100174.28;1737702;80;21630;-67
2021/01/17 10:05:13;;;;;;;106.32;50.70;;;;;;;-7.33;83.55;100179.30;1733190;82;20263;-65
2021/01/17 10:07:41;;;;;;;101.87;47.58;;;;;;;-7.24;83.45;100182.11;1729784;82;21214;-66
2021/01/17 10:10:10;;;;;;;85.77;44.50;;;;;;;-7.14;83.47;100179.06;1733537;82;21239;-65
2021/01/17 10:12:37;;;;;;;77.12;40.20;;;;;;;-7.05;83.41;100189.48;1731504;82;21183;-64
2021/01/17 10:15:13;;;;;;;74.05;38.15;;;;;;;-7.03;83.38;100180.25;1731273;81;21167;-64
2021/01/17 10:17:47;;;;;;;88.40;43.13;;;;;;;-6.92;83.51;100182.23;1733129;82;21107;-66
2021/01/17 10:20:33;;;;;;;92.85;47.03;;;;;;;-6.85;83.53;100179.08;1742077;79;21652;-65
2021/01/17 10:23:07;;;;;;;74.25;40.28;;;;;;;-6.71;83.51;100182.03;1757484;80;21102;-65
2021/01/17 10:25:35;;;;;;;88.00;47.43;;;;;;;-6.75;82.93;100188.67;1756062;79;21089;-66
2021/01/17 10:28:09;;;;;;;110.22;55.38;;;;;;;-6.72;83.08;100189.17;1761484;79;21197;-65
2021/01/17 10:30:40;;;;;;;72.70;39.13;;;;;;;-6.65;83.12;100183.06;1756671;80;21497;-63
2021/01/17 10:33:10;;;;;;;71.50;38.15;;;;;;;-6.55;83.26;100179.98;1754473;79;21208;-64
2021/01/17 10:35:47;;;;;;;78.42;47.55;;;;;;;-6.53;82.97;100178.33;1760980;80;21050;-64
2021/01/17 10:38:16;;;;;;;89.30;49.95;;;;;;;-6.43;83.09;100178.20;1760525;79;26897;-65
2021/01/17 10:40:46;;;;;;;87.22;47.85;;;;;;;-6.36;83.25;100176.68;1764807;80;21753;-64
2021/01/17 10:43:30;;;;;;;85.85;47.43;;;;;;;-6.29;83.11;100172.23;1758465;79;21204;-64
2021/01/17 10:46:10;;;;;;;65.97;36.45;;;;;;;-6.29;82.74;100173.92;1766080;80;21203;-65
2021/01/17 10:49:01;;;;;;;65.20;34.05;;;;;;;-6.28;82.64;100171.41;1762158;80;21019;-65
2021/01/17 10:51:44;;;;;;;63.45;32.15;;;;;;;-6.45;82.38;100175.16;1758600;79;21074;-65
2021/01/17 10:54:16;;;;;;;56.28;30.68;;;;;;;-6.62;82.47;100178.07;1759994;79;21552;-65
2021/01/17 10:56:44;;;;;;;60.92;36.63;;;;;;;-6.72;82.79;100183.72;1755416;79;21105;-66
2021/01/17 10:59:13;;;;;;;50.83;27.30;;;;;;;-6.71;82.87;100182.89;1764201;79;22262;-64
2021/01/17 11:01:46;;;;;;;38.38;22.45;;;;;;;-6.83;82.51;100192.69;1756502;80;21242;-65
2021/01/17 11:04:17;;;;;;;33.75;19.00;;;;;;;-7.06;82.64;100194.09;1732910;81;21126;-66
2021/01/17 11:06:45;;;;;;;25.62;14.95;;;;;;;-7.14;83.25;100196.83;1761690;80;21038;-66
2021/01/17 11:09:16;;;;;;;27.00;15.23;;;;;;;-7.10;83.67;100196.09;1765593;79;20987;-66
2021/01/17 11:11:48;;;;;;;24.37;14.25;;;;;;;-7.02;83.91;100187.05;1766963;79;22170;-66
2021/01/17 11:14:27;;;;;;;26.37;15.78;;;;;;;-7.04;83.46;100188.66;1761761;80;21167;-63
2021/01/17 11:17:03;;;;;;;27.02;16.55;;;;;;;-7.22;83.21;100181.77;1869881;75;22619;-68
2021/01/17 11:19:38;;;;;;;32.65;18.67;;;;;;;-7.39;83.47;100192.64;1850242;76;20960;-66
2021/01/17 11:22:10;;;;;;;30.65;17.48;;;;;;;-7.41;83.92;100184.52;1849549;76;21618;-65
2021/01/17 11:24:45;;;;;;;26.95;17.15;;;;;;;-7.27;84.24;100188.36;1848667;76;21030;-64
2021/01/17 11:27:16;;;;;;;26.55;15.88;;;;;;;-7.10;84.36;100183.41;1851100;76;21029;-64
2021/01/17 11:29:48;;;;;;;33.25;16.57;;;;;;;-7.00;84.22;100184.53;1845773;76;21613;-64
2021/01/17 11:32:21;;;;;;;24.70;14.07;;;;;;;-6.90;84.21;100176.81;1847419;76;21735;-67
2021/01/17 11:34:48;;;;;;;32.95;16.95;;;;;;;-6.72;84.19;100183.72;1847296;76;21135;-66